createdAt,value
2023-05-24T00:00:22.345Z,21.90
2023-05-24T00:02:52.338Z,12.77
2023-05-24T00:05:22.336Z,23.03
2023-05-24T00:07:54.717Z,19.43
2023-05-24T00:10:24.540Z,33.30
2023-05-24T00:12:54.360Z,18.30
2023-05-24T00:15:24.275Z,24.57
2023-05-24T00:17:54.130Z,23.93
2023-05-24T00:20:24.077Z,19.60
2023-05-24T00:22:56.542Z,21.73
2023-05-24T00:25:26.533Z,23.60
2023-05-24T00:27:56.638Z,22.23
2023-05-24T00:30:28.334Z,13.43
2023-05-24T00:32:58.629Z,24.73
2023-05-24T00:35:28.449Z,25.60
2023-05-24T00:38:00.854Z,24.27
2023-05-24T00:40:30.704Z,16.07
2023-05-24T00:43:00.509Z,18.90
2023-05-24T00:45:32.364Z,18.30
2023-05-24T00:48:03.808Z,24.73
2023-05-24T00:50:34.040Z,26.33
2023-05-24T00:53:07.447Z,16.30
2023-05-24T00:55:37.735Z,25.03
2023-05-24T00:58:07.840Z,16.97
2023-05-24T01:00:37.634Z,21.17
2023-05-24T01:03:08.826Z,19.03
2023-05-24T01:05:39.839Z,19.93
2023-05-24T01:08:25.013Z,24.30
2023-05-24T01:10:59.768Z,20.70
2023-05-24T01:13:39.204Z,18.83
2023-05-24T01:16:15.033Z,29.23
2023-05-24T01:18:50.983Z,16.83
2023-05-24T01:21:41.902Z,20.23
2023-05-24T01:24:27.672Z,19.23
2023-05-24T01:27:08.939Z,18.00
2023-05-24T01:29:39.472Z,24.60
2023-05-24T01:32:10.189Z,23.90
2023-05-24T01:34:40.040Z,30.07
2023-05-24T01:37:09.842Z,26.53
2023-05-24T01:39:39.878Z,24.83
2023-05-24T01:42:26.453Z,20.33
2023-05-24T01:45:05.389Z,17.13
2023-05-24T01:47:45.819Z,26.30
2023-05-24T01:50:25.157Z,15.63
2023-05-24T01:52:57.194Z,25.97
2023-05-24T01:55:30.030Z,30.00
2023-05-24T01:58:05.675Z,21.37
2023-05-24T02:00:36.474Z,40.33
2023-05-24T02:03:06.977Z,31.93
2023-05-24T02:05:37.832Z,21.10
2023-05-24T02:08:09.392Z,29.17
2023-05-24T02:10:39.802Z,19.50
2023-05-24T02:13:12.563Z,19.43
2023-05-24T02:15:42.487Z,11.90
2023-05-24T02:18:18.842Z,19.40
2023-05-24T02:20:48.892Z,27.57
2023-05-24T02:23:19.349Z,17.90
2023-05-24T02:25:49.201Z,22.27
2023-05-24T02:28:21.573Z,20.13
2023-05-24T02:30:51.537Z,33.50
2023-05-24T02:33:21.389Z,21.30
2023-05-24T02:35:51.524Z,21.97
2023-05-24T02:38:21.320Z,22.23
2023-05-24T02:40:51.592Z,23.90
2023-05-24T02:43:24.019Z,21.23
2023-05-24T02:45:53.857Z,26.53
2023-05-24T02:48:23.658Z,27.43
2023-05-24T02:50:53.581Z,27.57
2023-05-24T02:53:23.435Z,28.47
2023-05-24T02:55:53.621Z,28.87
2023-05-24T02:58:29.285Z,22.47
2023-05-24T03:00:59.273Z,18.67
2023-05-24T03:03:29.497Z,26.93
2023-05-24T03:06:00.456Z,26.97
2023-05-24T03:08:30.312Z,23.83
2023-05-24T03:11:00.107Z,34.00
2023-05-24T03:13:32.541Z,35.83
2023-05-24T03:16:02.340Z,32.80
2023-05-24T03:18:33.048Z,24.53
2023-05-24T03:21:02.910Z,30.33
2023-05-24T03:23:32.891Z,29.37
2023-05-24T03:26:02.715Z,26.33
2023-05-24T03:28:36.692Z,30.37
2023-05-24T03:31:07.927Z,40.47
2023-05-24T03:33:38.057Z,27.30
2023-05-24T03:36:09.552Z,36.43
2023-05-24T03:38:39.451Z,28.67
2023-05-24T03:41:09.566Z,39.10
2023-05-24T03:43:42.133Z,37.73
2023-05-24T03:46:17.709Z,33.03
2023-05-24T03:48:47.711Z,32.93
2023-05-24T03:51:17.726Z,26.27
2023-05-24T03:53:47.810Z,40.40
2023-05-24T03:56:18.312Z,31.00
2023-05-24T03:58:50.774Z,38.00
2023-05-24T04:01:32.650Z,30.43
2023-05-24T04:04:04.154Z,47.50
2023-05-24T04:06:36.893Z,40.37
2023-05-24T04:09:07.526Z,40.60
2023-05-24T04:11:37.372Z,35.83
2023-05-24T04:14:10.207Z,27.43
2023-05-24T04:16:41.876Z,27.77
2023-05-24T04:19:11.732Z,38.87
2023-05-24T04:21:41.644Z,28.93
2023-05-24T04:24:11.612Z,38.77
2023-05-24T04:26:41.514Z,39.43
2023-05-24T04:29:14.390Z,34.83
2023-05-24T04:31:45.251Z,39.53
2023-05-24T04:34:15.546Z,47.50
2023-05-24T04:36:45.637Z,36.80
2023-05-24T04:39:16.018Z,39.50
2023-05-24T04:41:45.883Z,44.77
2023-05-24T04:44:18.303Z,45.13
2023-05-24T04:46:48.158Z,31.50
2023-05-24T04:49:17.990Z,31.23
2023-05-24T04:51:47.878Z,41.53
2023-05-24T04:54:18.417Z,42.13
2023-05-24T04:56:48.202Z,34.17
2023-05-24T04:59:20.784Z,37.37
2023-05-24T05:01:51.036Z,43.83
2023-05-24T05:04:20.854Z,45.83
2023-05-24T05:06:50.642Z,41.60
2023-05-24T05:09:20.409Z,47.53
2023-05-24T05:11:50.438Z,41.93
2023-05-24T05:14:22.794Z,42.03
2023-05-24T05:16:52.585Z,40.43
2023-05-24T05:19:22.483Z,37.67
2023-05-24T05:21:52.327Z,43.73
2023-05-24T05:24:22.147Z,35.80
2023-05-24T05:26:51.886Z,36.00
2023-05-24T05:29:24.595Z,48.27
2023-05-24T05:31:54.602Z,37.77
2023-05-24T05:34:24.435Z,36.60
2023-05-24T05:36:54.238Z,36.37
2023-05-24T05:39:24.037Z,43.97
2023-05-24T05:41:53.823Z,36.67
2023-05-24T05:44:26.249Z,35.57
2023-05-24T05:46:55.999Z,32.30
2023-05-24T05:49:25.925Z,34.90
2023-05-24T05:51:55.918Z,42.23
2023-05-24T05:54:25.762Z,41.33
2023-05-24T05:56:55.538Z,25.20
2023-05-24T05:59:27.875Z,27.20
2023-05-24T06:01:57.645Z,32.80
2023-05-24T06:04:27.446Z,25.87
2023-05-24T06:06:57.272Z,29.90
2023-05-24T06:09:27.037Z,36.13
2023-05-24T06:11:56.818Z,30.83
2023-05-24T06:14:29.189Z,26.80
2023-05-24T06:17:00.266Z,30.37
2023-05-24T06:19:30.318Z,44.90
2023-05-24T06:22:00.211Z,48.73
2023-05-24T06:24:30.087Z,38.20
2023-05-24T06:27:00.055Z,28.93
2023-05-24T06:29:32.417Z,36.43
2023-05-24T06:32:02.423Z,36.90
2023-05-24T06:34:32.232Z,29.83
2023-05-24T06:37:02.707Z,46.13
2023-05-24T06:39:32.509Z,38.70
2023-05-24T06:42:02.303Z,44.73
2023-05-24T06:44:41.808Z,33.33
2023-05-24T06:47:12.245Z,36.57
2023-05-24T06:49:42.114Z,41.37
2023-05-24T06:52:11.894Z,28.60
2023-05-24T06:54:41.990Z,41.17
2023-05-24T06:57:11.786Z,35.58
2023-05-24T06:59:44.229Z,28.93
2023-05-24T07:02:14.057Z,39.13
2023-05-24T07:04:43.926Z,31.60
2023-05-24T07:07:14.383Z,46.90
2023-05-24T07:09:44.623Z,36.27
2023-05-24T07:12:15.085Z,31.30
2023-05-24T07:14:47.672Z,28.17
2023-05-24T07:17:17.690Z,33.67
2023-05-24T07:19:47.460Z,36.97
2023-05-24T07:22:17.506Z,39.70
2023-05-24T07:24:59.785Z,33.23
2023-05-24T07:27:33.144Z,29.00
2023-05-24T07:30:23.429Z,20.67
2023-05-24T07:33:00.417Z,39.37
2023-05-24T07:35:31.326Z,39.77
2023-05-24T07:38:01.249Z,35.40
2023-05-24T07:40:31.381Z,27.47
2023-05-24T07:43:01.608Z,28.20
2023-05-24T07:45:35.266Z,33.53
2023-05-24T07:48:05.095Z,38.63
2023-05-24T07:50:34.968Z,34.17
2023-05-24T07:53:05.665Z,33.23
2023-05-24T07:55:35.974Z,25.90
2023-05-24T07:58:05.751Z,40.20
2023-05-24T08:00:38.367Z,33.77
2023-05-24T08:03:09.534Z,34.27
2023-05-24T08:05:39.398Z,33.90
2023-05-24T08:08:09.789Z,37.67
2023-05-24T08:10:39.548Z,39.47
2023-05-24T08:13:09.382Z,35.23
2023-05-24T08:15:42.388Z,46.83
2023-05-24T08:18:12.433Z,32.43
2023-05-24T08:20:42.284Z,27.53
2023-05-24T08:23:12.192Z,29.17
2023-05-24T08:25:42.653Z,31.60
2023-05-24T08:28:12.910Z,27.40
2023-05-24T08:30:45.874Z,33.27
2023-05-24T08:33:15.673Z,34.30
2023-05-24T08:35:45.641Z,35.50
2023-05-24T08:38:15.484Z,37.10
2023-05-24T08:40:45.660Z,36.93
2023-05-24T08:43:15.772Z,30.83
2023-05-24T08:45:48.777Z,38.77
2023-05-24T08:48:19.150Z,28.50
2023-05-24T08:50:49.814Z,36.67
2023-05-24T08:53:22.046Z,30.50
2023-05-24T08:55:53.522Z,36.53
2023-05-24T08:58:23.660Z,38.37
2023-05-24T09:00:56.226Z,40.50
2023-05-24T09:03:27.164Z,36.20
2023-05-24T09:05:57.413Z,39.57
2023-05-24T09:08:28.547Z,28.10
2023-05-24T09:10:59.644Z,40.37
2023-05-24T09:13:31.821Z,30.60
2023-05-24T09:16:05.336Z,36.00
2023-05-24T09:18:35.146Z,35.20
2023-05-24T09:21:06.379Z,38.73
2023-05-24T09:23:36.814Z,48.37
2023-05-24T09:26:10.694Z,41.53
2023-05-24T09:28:41.945Z,44.50
2023-05-24T09:31:14.379Z,32.00
2023-05-24T09:33:44.149Z,59.03
2023-05-24T09:36:14.309Z,38.27
2023-05-24T09:38:44.067Z,46.60
2023-05-24T09:41:14.265Z,42.60
2023-05-24T09:43:51.418Z,35.50
2023-05-24T09:46:24.461Z,36.47
2023-05-24T09:49:03.727Z,41.90
2023-05-24T09:51:33.559Z,34.27
2023-05-24T09:54:04.674Z,45.47
2023-05-24T09:56:36.284Z,43.73
2023-05-24T09:59:10.930Z,42.63
2023-05-24T10:01:44.098Z,35.23
2023-05-24T10:04:14.258Z,40.43
2023-05-24T10:06:45.454Z,45.23
2023-05-24T10:09:15.495Z,33.70
2023-05-24T10:11:46.081Z,34.13
2023-05-24T10:14:16.486Z,42.73
2023-05-24T10:16:48.961Z,44.47
2023-05-24T10:19:18.791Z,38.77
2023-05-24T10:21:49.056Z,31.27
2023-05-24T10:24:27.198Z,42.37
2023-05-24T10:26:58.977Z,42.27
2023-05-24T10:29:40.742Z,29.80
2023-05-24T10:32:13.116Z,37.60
2023-05-24T10:34:44.954Z,39.17
2023-05-24T10:37:15.273Z,44.27
2023-05-24T10:39:45.268Z,42.30
2023-05-24T10:42:17.907Z,36.93
2023-05-24T10:44:47.856Z,44.30
2023-05-24T10:47:25.865Z,44.17
2023-05-24T10:50:00.305Z,45.87
2023-05-24T10:52:37.640Z,38.10
2023-05-24T10:55:09.944Z,31.37
2023-05-24T10:57:41.445Z,55.03
2023-05-24T11:03:09.649Z,44.53
2023-05-24T11:05:53.465Z,32.83
2023-05-24T11:08:28.419Z,33.23
2023-05-24T11:13:44.264Z,44.23
2023-05-24T11:16:38.757Z,32.40
2023-05-24T11:19:21.257Z,30.37
2023-05-24T11:21:52.272Z,34.53
2023-05-24T11:24:23.803Z,36.23
2023-05-24T11:26:54.312Z,32.50
2023-05-24T11:29:24.302Z,32.50
2023-05-24T11:31:55.526Z,40.40
2023-05-24T11:34:28.319Z,29.90
2023-05-24T11:36:59.268Z,35.77
2023-05-24T11:39:32.554Z,29.67
2023-05-24T11:42:02.612Z,30.67
2023-05-24T11:44:34.663Z,45.07
2023-05-24T11:47:05.461Z,37.37
2023-05-24T11:49:38.114Z,39.50
2023-05-24T11:52:08.815Z,37.43
2023-05-24T11:54:39.203Z,28.50
2023-05-24T11:57:10.333Z,45.40
2023-05-24T11:59:40.606Z,28.60
2023-05-24T12:02:10.864Z,34.33
2023-05-24T12:04:43.588Z,50.03
2023-05-24T12:07:14.409Z,32.60
2023-05-24T12:09:44.270Z,30.60
2023-05-24T12:12:14.079Z,19.87
2023-05-24T12:14:46.755Z,22.90
2023-05-24T12:17:20.576Z,27.10
2023-05-24T12:19:54.786Z,39.07
2023-05-24T12:22:32.068Z,31.43
2023-05-24T12:25:01.915Z,27.70
2023-05-24T12:27:34.124Z,26.10
2023-05-24T12:30:10.349Z,38.20
2023-05-24T12:32:40.226Z,30.07
2023-05-24T12:35:14.273Z,29.33
2023-05-24T12:37:44.133Z,31.53
2023-05-24T12:40:21.273Z,26.97
2023-05-24T12:42:54.744Z,36.17
2023-05-24T12:45:26.225Z,29.63
2023-05-24T12:47:56.774Z,23.93
2023-05-24T12:50:30.196Z,28.40
2023-05-24T12:53:00.710Z,31.90
2023-05-24T12:55:31.434Z,29.10
2023-05-24T12:58:03.489Z,33.10
2023-05-24T13:00:33.241Z,32.03
2023-05-24T13:03:03.183Z,31.43
2023-05-24T13:05:35.696Z,26.00
2023-05-24T13:08:05.802Z,25.17
2023-05-24T13:10:35.686Z,30.90
2023-05-24T13:13:05.469Z,29.53
2023-05-24T13:15:35.389Z,25.77
2023-05-24T13:18:05.267Z,29.60
2023-05-24T13:20:37.817Z,35.83
2023-05-24T13:23:07.679Z,23.13
2023-05-24T13:25:37.507Z,26.87
2023-05-24T13:28:07.528Z,36.97
2023-05-24T13:30:37.341Z,37.43
2023-05-24T13:33:07.328Z,26.80
2023-05-24T13:35:39.967Z,26.77
2023-05-24T13:38:10.120Z,28.17
2023-05-24T13:40:41.736Z,31.23
2023-05-24T13:43:11.890Z,24.77
2023-05-24T13:45:41.803Z,25.53
2023-05-24T13:48:11.599Z,34.93
2023-05-24T13:50:44.997Z,37.80
2023-05-24T13:53:15.486Z,33.80
2023-05-24T13:55:45.357Z,29.30
2023-05-24T13:58:15.818Z,24.00
2023-05-24T14:00:45.768Z,22.63
2023-05-24T14:03:16.095Z,21.00
2023-05-24T14:05:48.815Z,21.43
2023-05-24T14:08:18.649Z,23.40
2023-05-24T14:10:50.115Z,24.73
2023-05-24T14:13:58.783Z,29.57
2023-05-24T14:16:10.267Z,19.33
2023-05-24T14:18:40.193Z,23.30
2023-05-24T14:21:12.612Z,29.90
2023-05-24T14:23:42.471Z,27.37
2023-05-24T14:26:12.359Z,27.13
2023-05-24T14:28:42.162Z,27.23
2023-05-24T14:31:12.059Z,19.37
2023-05-24T14:33:41.874Z,29.90
2023-05-24T14:36:14.528Z,23.23
2023-05-24T14:38:44.339Z,26.30
2023-05-24T14:41:14.124Z,33.37
2023-05-24T14:43:43.897Z,27.93
2023-05-24T14:46:13.709Z,31.23
2023-05-24T14:48:44.278Z,21.20
2023-05-24T14:51:16.639Z,38.43
2023-05-24T14:53:46.510Z,24.93
2023-05-24T14:56:16.609Z,37.27
2023-05-24T14:58:46.414Z,30.57
2023-05-24T15:01:16.305Z,33.63
2023-05-24T15:03:46.250Z,24.73
2023-05-24T15:06:18.679Z,34.37
2023-05-24T15:08:48.470Z,33.50
2023-05-24T15:11:19.605Z,29.87
2023-05-24T15:13:49.403Z,24.33
2023-05-24T15:16:19.235Z,27.30
2023-05-24T15:18:49.146Z,21.10
2023-05-24T15:21:21.654Z,33.07
2023-05-24T15:23:51.728Z,34.60
2023-05-24T15:26:21.521Z,30.63
2023-05-24T15:28:51.328Z,33.67
2023-05-24T15:31:21.442Z,23.73
2023-05-24T15:33:51.288Z,20.20
2023-05-24T15:36:23.704Z,22.33
2023-05-24T15:38:54.454Z,27.63
2023-05-24T15:41:24.606Z,33.97
2023-05-24T15:43:55.166Z,28.03
2023-05-24T15:46:25.605Z,35.30
2023-05-24T15:48:55.887Z,26.30
2023-05-24T15:54:01.870Z,26.63
2023-05-24T15:56:31.955Z,30.07
2023-05-24T15:59:01.817Z,28.70
2023-05-24T16:01:31.653Z,23.00
2023-05-24T16:04:02.656Z,22.23
2023-05-24T16:06:35.033Z,28.73
2023-05-24T16:09:05.480Z,24.73
2023-05-24T16:11:35.935Z,31.50
2023-05-24T16:14:06.410Z,28.13
2023-05-24T16:16:36.573Z,26.50
2023-05-24T16:19:06.403Z,27.57
2023-05-24T16:21:41.740Z,22.90
2023-05-24T16:24:11.484Z,29.67
2023-05-24T16:26:41.745Z,32.23
2023-05-24T16:29:12.040Z,16.73
2023-05-24T16:31:41.897Z,27.50
2023-05-24T16:34:11.705Z,26.23
2023-05-24T16:36:45.805Z,26.70
2023-05-24T16:39:15.753Z,18.43
2023-05-24T16:41:45.603Z,21.53
2023-05-24T16:44:18.009Z,26.80
2023-05-24T16:46:48.401Z,20.90
2023-05-24T16:49:18.247Z,20.07
2023-05-24T16:51:50.584Z,21.63
2023-05-24T16:54:20.357Z,25.70
2023-05-24T16:56:50.160Z,21.07
2023-05-24T16:59:19.957Z,23.87
2023-05-24T17:01:51.736Z,27.77
2023-05-24T17:04:21.885Z,22.93
2023-05-24T17:06:54.300Z,36.93
2023-05-24T17:09:24.282Z,26.80
2023-05-24T17:11:54.202Z,25.43
2023-05-24T17:14:24.103Z,24.83
2023-05-24T17:16:53.832Z,22.67
2023-05-24T17:19:25.395Z,23.90
2023-05-24T17:21:57.769Z,20.37
2023-05-24T17:24:28.068Z,31.73
2023-05-24T17:26:57.849Z,23.03
2023-05-24T17:29:30.071Z,28.50
2023-05-24T17:31:59.931Z,26.67
2023-05-24T17:34:29.710Z,28.03
2023-05-24T17:37:02.133Z,27.20
2023-05-24T17:39:32.012Z,31.77
2023-05-24T17:42:01.853Z,27.00
2023-05-24T17:44:31.738Z,22.33
2023-05-24T17:47:02.172Z,25.00
2023-05-24T17:49:32.560Z,28.87
2023-05-24T17:52:05.113Z,22.80
2023-05-24T17:54:34.895Z,37.27
2023-05-24T17:57:04.767Z,21.67
2023-05-24T17:59:36.513Z,19.23
2023-05-24T18:02:06.534Z,36.37
2023-05-24T18:04:36.290Z,18.60
2023-05-24T18:07:08.709Z,22.40
2023-05-24T18:09:38.457Z,23.33
2023-05-24T18:12:08.973Z,18.83
2023-05-24T18:14:38.809Z,21.93
2023-05-24T18:17:09.459Z,22.97
2023-05-24T18:19:39.440Z,18.00
2023-05-24T18:22:12.024Z,15.23
2023-05-24T18:24:41.863Z,22.83
2023-05-24T18:27:11.654Z,20.30
2023-05-24T18:29:41.463Z,24.90
2023-05-24T18:32:11.554Z,18.80
2023-05-24T18:34:41.391Z,26.90
2023-05-24T18:37:13.806Z,16.97
2023-05-24T18:39:43.665Z,17.33
2023-05-24T18:42:13.538Z,21.20
2023-05-24T18:44:50.115Z,17.63
2023-05-24T18:47:20.118Z,20.03
2023-05-24T18:49:49.973Z,15.03
2023-05-24T18:52:22.849Z,16.50
2023-05-24T18:54:53.148Z,24.33
2023-05-24T18:57:23.817Z,16.17
2023-05-24T18:59:54.051Z,12.80
2023-05-24T19:02:23.977Z,16.23
2023-05-24T19:04:53.811Z,32.20
2023-05-24T19:07:26.429Z,18.07
2023-05-24T19:09:56.319Z,27.60
2023-05-24T19:12:26.178Z,19.30
2023-05-24T19:14:56.109Z,23.93
2023-05-24T19:17:26.377Z,15.40
2023-05-24T19:19:56.363Z,20.10
2023-05-24T19:22:29.355Z,19.70
2023-05-24T19:24:59.236Z,16.37
2023-05-24T19:27:29.229Z,22.33
2023-05-24T19:30:00.355Z,22.90
2023-05-24T19:32:30.296Z,18.90
2023-05-24T19:35:00.269Z,22.10
2023-05-24T19:37:32.809Z,19.17
2023-05-24T19:40:03.224Z,26.20
2023-05-24T19:42:33.400Z,19.83
2023-05-24T19:45:03.417Z,23.00
2023-05-24T19:47:34.851Z,21.60
2023-05-24T19:50:04.899Z,16.20
2023-05-24T19:52:37.618Z,26.23
2023-05-24T19:55:08.556Z,26.20
2023-05-24T19:57:38.353Z,25.67
2023-05-24T20:00:09.722Z,25.70
2023-05-24T20:02:42.794Z,20.90
2023-05-24T20:05:13.098Z,22.87
2023-05-24T20:07:46.122Z,21.50
2023-05-24T20:10:16.594Z,25.03
2023-05-24T20:12:47.086Z,22.90
2023-05-24T20:15:19.106Z,25.70
2023-05-24T20:17:49.153Z,18.90
2023-05-24T20:20:19.094Z,14.63
2023-05-24T20:22:51.655Z,22.40
2023-05-24T20:25:22.033Z,23.53
2023-05-24T20:27:51.805Z,22.17
2023-05-24T20:30:21.827Z,29.47
2023-05-24T20:32:52.303Z,22.17
2023-05-24T20:35:22.333Z,17.50
2023-05-24T20:37:54.854Z,18.97
2023-05-24T20:40:26.441Z,19.53
2023-05-24T20:42:56.265Z,23.30
2023-05-24T20:45:26.077Z,22.07
2023-05-24T20:47:55.975Z,15.53
2023-05-24T20:50:25.820Z,20.47
2023-05-24T20:52:58.215Z,18.03
2023-05-24T20:55:28.009Z,19.90
2023-05-24T20:57:57.790Z,22.70
2023-05-24T21:00:27.655Z,16.20
2023-05-24T21:02:57.570Z,19.40
2023-05-24T21:05:27.413Z,18.97
2023-05-24T21:07:59.854Z,18.30
2023-05-24T21:10:29.617Z,17.00
2023-05-24T21:12:59.868Z,18.23
2023-05-24T21:15:29.681Z,15.73
2023-05-24T21:17:59.555Z,20.10
2023-05-24T21:20:29.458Z,18.60
2023-05-24T21:23:01.877Z,24.43
2023-05-24T21:25:31.662Z,21.60
2023-05-24T21:28:01.443Z,12.00
2023-05-24T21:30:32.669Z,20.13
2023-05-24T21:33:02.510Z,21.97
2023-05-24T21:35:32.727Z,17.50
2023-05-24T21:38:05.051Z,16.47
2023-05-24T21:40:34.944Z,17.97
2023-05-24T21:43:05.386Z,20.47
2023-05-24T21:45:35.253Z,10.67
2023-05-24T21:48:05.034Z,20.50
2023-05-24T21:50:36.174Z,16.50
2023-05-24T21:53:08.583Z,11.57
2023-05-24T21:55:38.374Z,14.97
2023-05-24T21:58:08.261Z,14.80
2023-05-24T22:00:38.687Z,22.53
2023-05-24T22:03:08.796Z,17.47
2023-05-24T22:05:38.739Z,19.97
2023-05-24T22:08:11.221Z,19.67
2023-05-24T22:10:41.060Z,13.43
2023-05-24T22:13:10.876Z,13.30
2023-05-24T22:15:40.889Z,14.63
2023-05-24T22:18:10.912Z,20.63
2023-05-24T22:20:40.797Z,14.80
2023-05-24T22:23:13.437Z,12.80
2023-05-24T22:25:44.944Z,11.87
2023-05-24T22:28:14.911Z,12.43
2023-05-24T22:30:44.721Z,11.57
2023-05-24T22:33:14.983Z,13.53
2023-05-24T22:35:45.166Z,11.00
2023-05-24T22:38:17.734Z,12.53
2023-05-24T22:40:47.490Z,14.20
2023-05-24T22:43:17.444Z,18.13
2023-05-24T22:45:47.396Z,19.33
2023-05-24T22:48:18.182Z,18.33
2023-05-24T22:50:48.309Z,17.17
2023-05-24T22:53:20.724Z,15.57
2023-05-24T22:55:50.540Z,16.43
2023-05-24T22:58:21.512Z,14.37
2023-05-24T23:00:51.457Z,18.73
2023-05-24T23:03:22.127Z,14.83
2023-05-24T23:05:53.812Z,10.07
2023-05-24T23:08:26.225Z,15.00
2023-05-24T23:10:58.274Z,22.50
2023-05-24T23:13:33.454Z,13.87
2023-05-24T23:16:03.644Z,15.47
2023-05-24T23:18:33.402Z,11.87
2023-05-24T23:21:03.312Z,20.40
2023-05-24T23:23:35.665Z,20.63
2023-05-24T23:26:05.637Z,14.37
2023-05-24T23:28:35.814Z,14.93
2023-05-24T23:31:05.707Z,20.80
2023-05-24T23:33:35.576Z,10.87
2023-05-24T23:36:05.386Z,10.23
2023-05-24T23:38:37.871Z,13.07
2023-05-24T23:41:07.755Z,11.00
2023-05-24T23:43:37.634Z,14.30
2023-05-24T23:46:08.301Z,8.43
2023-05-24T23:48:38.039Z,10.87
2023-05-24T23:51:10.319Z,9.03
2023-05-24T23:53:42.733Z,8.43
2023-05-24T23:56:12.531Z,12.40
2023-05-24T23:58:42.488Z,4.63
